Time;durP1;ratioP1;P1;durP2;ratioP2;P2;SDS_P1;SDS_P2;PMS_P1;PMS_P2;Temp;Humidity;BMP_temperature;BMP_pressure;BME280_temperature;BME280_humidity;BME280_pressure;Samples;Min_cycle;Max_cycle;Signal;HPM_P1;HPM_P2
2023/03/20 00:01:28;;;;;;;128.60;54.40;;;;;;;;;;4827052;29;20050;-78
2023/03/20 00:04:13;;;;;;;102.22;43.47;;;;;;;;;;4829234;29;20053;-78
2023/03/20 00:06:59;;;;;;;78.72;34.90;;;;;;;;;;4805245;29;20126;-78
2023/03/20 00:09:44;;;;;;;62.40;28.55;;;;;;;;;;4830736;29;20045;-77
2023/03/20 00:12:30;;;;;;;39.15;19.92;;;;;;;;;;4814091;29;20441;-78
2023/03/20 00:15:35;;;;;;;37.78;17.30;;;;;;;;;;4831420;29;20407;-78
2023/03/20 00:18:22;;;;;;;59.25;29.27;;;;;;;;;;4814613;29;20046;-78
2023/03/20 00:21:17;;;;;;;54.17;24.48;;;;;;;;;;4830909;29;20487;-79
2023/03/20 00:24:03;;;;;;;44.92;21.35;;;;;;;;;;4814834;29;20050;-78
2023/03/20 00:26:50;;;;;;;35.08;18.27;;;;;;;;;;4831664;29;20403;-78
2023/03/20 00:29:35;;;;;;;35.83;18.95;;;;;;;;;;4814432;29;20067;-78
2023/03/20 00:32:21;;;;;;;40.75;20.30;;;;;;;;;;4807322;29;20046;-78
2023/03/20 00:35:20;;;;;;;44.15;21.02;;;;;;;;;;4823016;29;20046;-78
2023/03/20 00:38:05;;;;;;;32.95;16.05;;;;;;;;;;4831354;29;20075;-77
2023/03/20 00:40:53;;;;;;;30.58;14.63;;;;;;;;;;4831117;29;20480;-78
2023/03/20 00:43:39;;;;;;;27.27;14.70;;;;;;;;;;4822804;29;20050;-78
2023/03/20 00:46:24;;;;;;;28.85;13.68;;;;;;;;;;4831732;29;20480;-78
2023/03/20 00:49:10;;;;;;;43.25;22.60;;;;;;;;;;4811079;29;20054;-78
2023/03/20 00:51:57;;;;;;;73.82;35.00;;;;;;;;;;4811870;29;20058;-78
2023/03/20 00:54:43;;;;;;;60.40;25.60;;;;;;;;;;4832072;29;20054;-78
2023/03/20 00:57:37;;;;;;;49.67;23.48;;;;;;;;;;4818087;29;20057;-79
2023/03/20 01:00:35;;;;;;;51.78;24.90;;;;;;;;;;4811338;29;20062;-78
2023/03/20 01:03:23;;;;;;;60.00;25.33;;;;;;;;;;4823701;29;20051;-79
2023/03/20 01:06:11;;;;;;;51.50;23.80;;;;;;;;;;4810969;29;20058;-78
2023/03/20 01:08:57;;;;;;;48.33;24.50;;;;;;;;;;4805431;29;20050;-79
2023/03/20 01:11:44;;;;;;;53.92;25.92;;;;;;;;;;4831825;29;20054;-78
2023/03/20 01:14:30;;;;;;;57.78;25.45;;;;;;;;;;4831614;29;20053;-79
2023/03/20 01:17:21;;;;;;;57.80;25.58;;;;;;;;;;4810986;29;20430;-78
2023/03/20 01:20:20;;;;;;;51.42;24.08;;;;;;;;;;4805349;29;20049;-79
2023/03/20 01:23:06;;;;;;;54.83;25.85;;;;;;;;;;4830877;29;20483;-79
2023/03/20 01:25:51;;;;;;;62.63;24.83;;;;;;;;;;4811766;29;20046;-79
2023/03/20 01:28:37;;;;;;;49.03;20.30;;;;;;;;;;4811395;29;20050;-79
2023/03/20 01:31:22;;;;;;;47.53;20.23;;;;;;;;;;4811517;29;20062;-79
2023/03/20 01:34:09;;;;;;;34.88;17.50;;;;;;;;;;4804819;29;20487;-79
2023/03/20 01:36:57;;;;;;;37.95;17.23;;;;;;;;;;4810346;29;20050;-78
2023/03/20 01:39:43;;;;;;;32.83;15.70;;;;;;;;;;4831059;29;20050;-79
2023/03/20 01:42:29;;;;;;;30.45;15.43;;;;;;;;;;4823372;29;20046;-78
2023/03/20 01:45:19;;;;;;;35.20;14.95;;;;;;;;;;4810258;29;20054;-78
2023/03/20 01:48:17;;;;;;;32.63;15.50;;;;;;;;;;4800253;29;20050;-78
2023/03/20 01:51:03;;;;;;;29.30;14.80;;;;;;;;;;4805734;29;20054;-78
2023/03/20 01:54:11;;;;;;;25.55;14.95;;;;;;;;;;4805444;29;20054;-78
2023/03/20 01:57:12;;;;;;;34.95;17.13;;;;;;;;;;4805270;29;20047;-79
2023/03/20 02:00:09;;;;;;;52.50;21.67;;;;;;;;;;4805176;29;20042;-78
2023/03/20 02:03:06;;;;;;;45.05;21.38;;;;;;;;;;4812894;29;20050;-78
2023/03/20 02:06:14;;;;;;;51.90;21.92;;;;;;;;;;4818601;29;20089;-78
2023/03/20 02:09:38;;;;;;;53.90;21.90;;;;;;;;;;4774805;30;20055;-78
2023/03/20 02:12:28;;;;;;;59.63;22.65;;;;;;;;;;4771641;29;20051;-79
2023/03/20 02:15:16;;;;;;;59.17;25.92;;;;;;;;;;4805670;29;20050;-79
2023/03/20 02:18:31;;;;;;;68.78;28.75;;;;;;;;;;4806887;29;20055;-78
2023/03/20 02:21:18;;;;;;;94.75;35.65;;;;;;;;;;4802302;29;20050;-79
2023/03/20 02:24:14;;;;;;;78.40;33.70;;;;;;;;;;4797475;29;20381;-78
2023/03/20 02:27:27;;;;;;;69.82;31.77;;;;;;;;;;4803189;29;20055;-79
2023/03/20 02:30:13;;;;;;;61.47;27.83;;;;;;;;;;4803709;29;20058;-78
2023/03/20 02:33:30;;;;;;;68.28;26.52;;;;;;;;;;4804017;29;20500;-78
2023/03/20 02:36:42;;;;;;;42.25;20.67;;;;;;;;;;4811059;29;20062;-78
2023/03/20 02:39:51;;;;;;;49.90;21.45;;;;;;;;;;4803882;29;20050;-77
2023/03/20 02:43:10;;;;;;;43.40;19.40;;;;;;;;;;4802925;29;20047;-79
2023/03/20 02:46:23;;;;;;;62.53;24.30;;;;;;;;;;4802870;29;20050;-78
2023/03/20 02:49:22;;;;;;;50.47;21.63;;;;;;;;;;4803800;29;20058;-78
2023/03/20 02:52:10;;;;;;;65.30;25.08;;;;;;;;;;4830073;29;20050;-78
2023/03/20 02:55:09;;;;;;;66.80;25.63;;;;;;;;;;4804086;29;20051;-78
2023/03/20 02:58:00;;;;;;;59.92;24.52;;;;;;;;;;4820713;29;20042;-78
2023/03/20 03:01:00;;;;;;;53.10;23.63;;;;;;;;;;4822037;29;20069;-78
2023/03/20 03:03:56;;;;;;;234.45;70.03;;;;;;;;;;4804482;29;20039;-78
2023/03/20 03:06:44;;;;;;;116.50;40.47;;;;;;;;;;4804659;29;20408;-79
2023/03/20 03:09:37;;;;;;;120.40;41.42;;;;;;;;;;4804281;29;20046;-78
2023/03/20 03:12:28;;;;;;;121.32;41.30;;;;;;;;;;4828985;29;20042;-78
2023/03/20 03:15:29;;;;;;;68.55;28.10;;;;;;;;;;4821750;29;20049;-78
2023/03/20 03:18:18;;;;;;;75.00;27.48;;;;;;;;;;4805698;29;20046;-79
2023/03/20 03:21:05;;;;;;;76.07;27.58;;;;;;;;;;4814470;29;20059;-78
2023/03/20 03:23:51;;;;;;;55.00;25.27;;;;;;;;;;4803588;29;20055;-78
2023/03/20 03:26:39;;;;;;;56.95;24.98;;;;;;;;;;4809986;29;20051;-79
2023/03/20 03:29:30;;;;;;;63.72;25.38;;;;;;;;;;4818307;29;20050;-78
2023/03/20 03:32:42;;;;;;;68.28;27.33;;;;;;;;;;4813925;29;20053;-78
2023/03/20 03:35:27;;;;;;;63.35;26.40;;;;;;;;;;4799447;29;20047;-79
2023/03/20 03:38:23;;;;;;;51.28;24.88;;;;;;;;;;4826900;29;20479;-79
2023/03/20 03:41:15;;;;;;;55.10;24.40;;;;;;;;;;4823106;29;20065;-79
2023/03/20 03:44:06;;;;;;;49.53;21.80;;;;;;;;;;4824636;29;20057;-79
2023/03/20 03:47:01;;;;;;;40.85;19.83;;;;;;;;;;4814628;29;20051;-79
2023/03/20 03:49:55;;;;;;;35.75;18.08;;;;;;;;;;4822859;29;20399;-79
2023/03/20 03:52:43;;;;;;;31.77;17.30;;;;;;;;;;4811767;29;20493;-79
2023/03/20 03:55:35;;;;;;;35.95;17.13;;;;;;;;;;4807475;29;20042;-78
2023/03/20 03:58:29;;;;;;;35.72;17.27;;;;;;;;;;4806159;29;20050;-80
2023/03/20 04:01:17;;;;;;;35.22;14.98;;;;;;;;;;4823479;29;20054;-79
2023/03/20 04:04:07;;;;;;;30.58;15.95;;;;;;;;;;4824245;29;20053;-79
2023/03/20 04:06:52;;;;;;;38.70;18.40;;;;;;;;;;4807536;29;20055;-79
2023/03/20 04:09:38;;;;;;;44.08;22.50;;;;;;;;;;4807471;29;20066;-78
2023/03/20 04:12:29;;;;;;;51.72;24.40;;;;;;;;;;4824390;29;20058;-78
2023/03/20 04:15:15;;;;;;;46.60;18.35;;;;;;;;;;4807057;29;20058;-79
2023/03/20 04:18:01;;;;;;;42.53;16.98;;;;;;;;;;4817475;29;20049;-79
2023/03/20 04:20:47;;;;;;;31.83;14.82;;;;;;;;;;4806987;29;20046;-80
2023/03/20 04:23:32;;;;;;;29.70;16.20;;;;;;;;;;4823700;29;20041;-80
2023/03/20 04:26:18;;;;;;;31.90;16.38;;;;;;;;;;4807068;29;20491;-80
2023/03/20 04:29:03;;;;;;;33.33;17.92;;;;;;;;;;4823649;29;20407;-80
2023/03/20 04:31:58;;;;;;;;;;;;;;;;;;4808038;29;20050;-78
2023/03/20 04:35:10;;;;;;;34.63;15.32;;;;;;;;;;4830955;29;20369;-80
2023/03/20 04:38:07;;;;;;;32.72;17.08;;;;;;;;;;4806577;29;20043;-78
2023/03/20 04:40:54;;;;;;;41.35;18.30;;;;;;;;;;4806657;29;20046;-78
2023/03/20 04:43:39;;;;;;;37.83;17.20;;;;;;;;;;4806387;29;20055;-80
2023/03/20 04:46:25;;;;;;;39.65;19.00;;;;;;;;;;4817668;29;20065;-78
2023/03/20 04:49:11;;;;;;;39.20;19.13;;;;;;;;;;4822909;29;20062;-79
2023/03/20 04:51:56;;;;;;;43.53;19.73;;;;;;;;;;4800331;29;20054;-78
2023/03/20 04:54:54;;;;;;;44.15;21.67;;;;;;;;;;4805750;29;20058;-78
2023/03/20 04:57:40;;;;;;;58.55;28.45;;;;;;;;;;4806818;29;20046;-78
2023/03/20 05:00:28;;;;;;;80.68;34.70;;;;;;;;;;4806556;29;20046;-80
2023/03/20 05:03:14;;;;;;;45.33;24.08;;;;;;;;;;4830518;29;20054;-78
2023/03/20 05:05:59;;;;;;;55.13;26.92;;;;;;;;;;4806810;29;20046;-77
2023/03/20 05:08:46;;;;;;;70.68;28.20;;;;;;;;;;4806223;29;20042;-79
2023/03/20 05:11:30;;;;;;;61.35;28.25;;;;;;;;;;4823503;29;20046;-79
2023/03/20 05:14:31;;;;;;;75.15;30.00;;;;;;;;;;4813910;29;20488;-79
2023/03/20 05:17:34;;;;;;;78.57;29.73;;;;;;;;;;4806745;29;20050;-79
2023/03/20 05:20:37;;;;;;;70.68;29.60;;;;;;;;;;4806349;29;20050;-79
2023/03/20 05:23:57;;;;;;;62.78;28.58;;;;;;;;;;4739550;30;20056;-79
2023/03/20 05:26:59;;;;;;;74.55;31.30;;;;;;;;;;4822202;29;20049;-78
2023/03/20 05:30:01;;;;;;;67.95;32.67;;;;;;;;;;4805620;29;20477;-79
2023/03/20 05:33:06;;;;;;;68.60;31.00;;;;;;;;;;4835680;29;20062;-79
2023/03/20 05:36:12;;;;;;;86.13;33.85;;;;;;;;;;4834576;29;20046;-79
2023/03/20 05:39:17;;;;;;;81.28;36.55;;;;;;;;;;4811966;29;20042;-79
2023/03/20 05:42:41;;;;;;;69.82;31.23;;;;;;;;;;4765462;30;20044;-79
2023/03/20 05:45:45;;;;;;;51.70;27.52;;;;;;;;;;4765889;30;20052;-79
2023/03/20 05:48:53;;;;;;;59.72;29.13;;;;;;;;;;4805229;29;20050;-79
2023/03/20 05:51:57;;;;;;;62.17;28.35;;;;;;;;;;4812661;29;20066;-79
2023/03/20 05:55:00;;;;;;;55.33;28.25;;;;;;;;;;4813004;29;20400;-79
2023/03/20 05:58:00;;;;;;;51.53;27.65;;;;;;;;;;4803977;29;20050;-79
2023/03/20 06:00:58;;;;;;;58.58;29.85;;;;;;;;;;4804499;29;20050;-80
2023/03/20 06:04:15;;;;;;;54.13;27.13;;;;;;;;;;4805890;29;20043;-80
2023/03/20 06:07:19;;;;;;;53.70;25.75;;;;;;;;;;4805046;29;20492;-80
2023/03/20 06:10:14;;;;;;;47.63;24.10;;;;;;;;;;4805423;29;20042;-80
2023/03/20 06:13:00;;;;;;;56.72;26.75;;;;;;;;;;4804717;29;20061;-80
2023/03/20 06:15:47;;;;;;;58.17;29.95;;;;;;;;;;4798165;29;20059;-80
2023/03/20 06:18:35;;;;;;;62.92;34.30;;;;;;;;;;4804583;29;20461;-80
2023/03/20 06:21:20;;;;;;;52.67;28.92;;;;;;;;;;4804490;29;20050;-80
2023/03/20 06:24:06;;;;;;;69.32;35.17;;;;;;;;;;4805166;29;20050;-81
2023/03/20 06:26:51;;;;;;;65.90;33.67;;;;;;;;;;4816554;29;20046;-80
2023/03/20 06:29:37;;;;;;;70.13;36.20;;;;;;;;;;4812368;29;20062;-80
2023/03/20 06:32:40;;;;;;;69.43;34.85;;;;;;;;;;4817077;29;20404;-81
2023/03/20 06:35:30;;;;;;;66.95;33.30;;;;;;;;;;4797953;29;20055;-81
2023/03/20 06:38:15;;;;;;;172.23;65.35;;;;;;;;;;4803632;29;20050;-80
2023/03/20 06:41:01;;;;;;;99.90;42.72;;;;;;;;;;4803313;29;20055;-81
2023/03/20 06:43:47;;;;;;;117.97;56.88;;;;;;;;;;4804033;29;20046;-81
2023/03/20 06:46:32;;;;;;;72.13;36.25;;;;;;;;;;4806325;29;20046;-82
2023/03/20 06:49:17;;;;;;;70.13;36.65;;;;;;;;;;4823052;29;20038;-81
2023/03/20 06:52:04;;;;;;;75.68;37.30;;;;;;;;;;4821897;29;20062;-81
2023/03/20 06:54:51;;;;;;;144.52;72.70;;;;;;;;;;4801263;29;20055;-81
2023/03/20 06:57:37;;;;;;;102.35;46.30;;;;;;;;;;4800221;29;20050;-83
2023/03/20 07:00:22;;;;;;;81.50;44.13;;;;;;;;;;4799798;29;20046;-80
2023/03/20 07:03:08;;;;;;;103.10;47.13;;;;;;;;;;4801614;29;20062;-81
2023/03/20 07:05:54;;;;;;;97.95;44.38;;;;;;;;;;4800196;29;20496;-83
2023/03/20 07:08:41;;;;;;;78.00;42.35;;;;;;;;;;4805545;29;20051;-80
2023/03/20 07:11:27;;;;;;;68.72;33.13;;;;;;;;;;4801875;29;20412;-80
2023/03/20 07:14:13;;;;;;;79.03;37.03;;;;;;;;;;4825186;29;20045;-80
2023/03/20 07:17:22;;;;;;;60.92;33.05;;;;;;;;;;4810611;29;20440;-79
2023/03/20 07:20:08;;;;;;;84.80;37.47;;;;;;;;;;4826365;29;20049;-80
2023/03/20 07:22:54;;;;;;;76.22;39.92;;;;;;;;;;4826087;29;20050;-80
2023/03/20 07:25:45;;;;;;;77.65;38.88;;;;;;;;;;4826611;29;20050;-80
2023/03/20 07:28:34;;;;;;;77.63;40.47;;;;;;;;;;4809228;29;20051;-80
2023/03/20 07:31:31;;;;;;;79.88;42.47;;;;;;;;;;4809923;29;20050;-79
2023/03/20 07:34:32;;;;;;;80.80;43.15;;;;;;;;;;4825243;29;20483;-80
2023/03/20 07:37:19;;;;;;;81.93;41.17;;;;;;;;;;4809705;29;20054;-80
2023/03/20 07:40:15;;;;;;;80.00;41.88;;;;;;;;;;4810892;29;20411;-83
2023/03/20 07:43:13;;;;;;;95.70;42.90;;;;;;;;;;4810165;29;20072;-81
2023/03/20 07:46:17;;;;;;;80.80;40.63;;;;;;;;;;4835271;29;20053;-79
2023/03/20 07:49:04;;;;;;;72.72;36.78;;;;;;;;;;4834980;29;20050;-80
2023/03/20 07:51:50;;;;;;;71.32;36.10;;;;;;;;;;4835322;29;20045;-81
2023/03/20 07:54:35;;;;;;;55.88;34.13;;;;;;;;;;4811982;29;20039;-79
2023/03/20 07:57:20;;;;;;;56.38;31.15;;;;;;;;;;4813890;29;20047;-81
2023/03/20 08:00:07;;;;;;;58.90;30.65;;;;;;;;;;4812179;29;20054;-80
2023/03/20 08:02:57;;;;;;;56.17;33.55;;;;;;;;;;4821367;29;20080;-80
2023/03/20 08:05:42;;;;;;;55.47;31.42;;;;;;;;;;4839151;29;20058;-81
2023/03/20 08:08:28;;;;;;;46.60;28.55;;;;;;;;;;4822371;29;20054;-79
2023/03/20 08:11:13;;;;;;;49.15;26.35;;;;;;;;;;4838001;29;20058;-81
2023/03/20 08:13:59;;;;;;;52.15;29.00;;;;;;;;;;4818032;29;20054;-80
2023/03/20 08:16:45;;;;;;;53.95;28.48;;;;;;;;;;4835231;29;20050;-82
2023/03/20 08:19:30;;;;;;;33.08;18.63;;;;;;;;;;4834050;29;20049;-82
2023/03/20 08:22:16;;;;;;;34.00;18.08;;;;;;;;;;4818092;29;20484;-82
2023/03/20 08:25:02;;;;;;;27.98;16.42;;;;;;;;;;4801619;29;20050;-81
2023/03/20 08:27:48;;;;;;;29.48;16.00;;;;;;;;;;4831911;29;20057;-82
2023/03/20 08:30:32;;;;;;;37.53;16.80;;;;;;;;;;4815074;29;20046;-81
2023/03/20 08:33:19;;;;;;;26.98;14.30;;;;;;;;;;4831782;29;20046;-82
2023/03/20 08:36:04;;;;;;;28.00;15.30;;;;;;;;;;4815032;29;20062;-82
2023/03/20 08:38:49;;;;;;;27.70;14.93;;;;;;;;;;4814730;29;20411;-81
2023/03/20 08:41:40;;;;;;;24.08;14.63;;;;;;;;;;4831789;29;20042;-81
2023/03/20 08:44:25;;;;;;;34.90;20.52;;;;;;;;;;4800207;29;20412;-79
2023/03/20 08:47:11;;;;;;;28.10;17.08;;;;;;;;;;4830779;29;20045;-80
2023/03/20 08:49:57;;;;;;;28.05;16.58;;;;;;;;;;4831945;29;20054;-80
2023/03/20 08:52:43;;;;;;;33.10;18.73;;;;;;;;;;4814398;29;20058;-81
2023/03/20 08:55:28;;;;;;;41.08;20.02;;;;;;;;;;4814717;29;20050;-79
2023/03/20 08:58:13;;;;;;;31.15;17.55;;;;;;;;;;4814604;29;20054;-79
2023/03/20 09:01:07;;;;;;;31.13;17.20;;;;;;;;;;4806927;29;20046;-81
2023/03/20 09:03:53;;;;;;;28.77;18.20;;;;;;;;;;4814356;29;20050;-82
2023/03/20 09:06:39;;;;;;;29.25;18.63;;;;;;;;;;4800746;29;20050;-80
2023/03/20 09:09:28;;;;;;;27.58;17.33;;;;;;;;;;4831236;29;20053;-81
2023/03/20 09:12:13;;;;;;;30.30;18.33;;;;;;;;;;4831271;29;20038;-79
2023/03/20 09:15:00;;;;;;;30.08;17.13;;;;;;;;;;4800015;29;20046;-79
2023/03/20 09:17:45;;;;;;;23.48;14.35;;;;;;;;;;4814141;29;20047;-82
2023/03/20 09:20:31;;;;;;;26.33;13.88;;;;;;;;;;4830435;29;20050;-79
2023/03/20 09:23:17;;;;;;;23.48;14.43;;;;;;;;;;4806308;29;20050;-81
2023/03/20 09:26:02;;;;;;;23.40;11.88;;;;;;;;;;4814094;29;20500;-81
2023/03/20 09:28:48;;;;;;;20.92;13.65;;;;;;;;;;4830586;29;20046;-81
2023/03/20 09:31:33;;;;;;;27.23;13.52;;;;;;;;;;4831203;29;20041;-81
2023/03/20 09:34:19;;;;;;;18.05;10.80;;;;;;;;;;4799624;29;20062;-80
2023/03/20 09:37:05;;;;;;;19.15;12.52;;;;;;;;;;4813003;29;20042;-80
2023/03/20 09:39:50;;;;;;;23.63;14.45;;;;;;;;;;4816030;29;20042;-80
2023/03/20 09:42:51;;;;;;;23.55;12.57;;;;;;;;;;4829820;29;20055;-80
2023/03/20 09:45:52;;;;;;;22.00;13.10;;;;;;;;;;4813358;29;20606;-79
2023/03/20 09:48:45;;;;;;;20.02;10.50;;;;;;;;;;4799982;29;20050;-80
2023/03/20 09:51:48;;;;;;;20.67;11.48;;;;;;;;;;4830847;29;20055;-80
2023/03/20 09:54:40;;;;;;;20.23;11.40;;;;;;;;;;4799377;29;20055;-81
2023/03/20 09:57:27;;;;;;;15.43;9.25;;;;;;;;;;4812357;29;20042;-82
2023/03/20 10:00:15;;;;;;;20.23;8.95;;;;;;;;;;4811932;29;20050;-81
2023/03/20 10:03:02;;;;;;;14.00;7.05;;;;;;;;;;4828429;29;20042;-81
2023/03/20 10:05:54;;;;;;;10.82;5.95;;;;;;;;;;4828643;29;20050;-81
2023/03/20 10:08:41;;;;;;;11.63;6.78;;;;;;;;;;4828442;29;20042;-83
2023/03/20 10:11:52;;;;;;;11.73;6.68;;;;;;;;;;4811334;29;20050;-81
2023/03/20 10:15:07;;;;;;;15.57;6.82;;;;;;;;;;4819099;29;20055;-82
2023/03/20 10:17:58;;;;;;;9.38;4.90;;;;;;;;;;4799151;29;20054;-80
2023/03/20 10:20:52;;;;;;;8.75;4.65;;;;;;;;;;4812810;29;20046;-80
2023/03/20 10:23:54;;;;;;;11.77;4.97;;;;;;;;;;4798800;29;20042;-80
2023/03/20 10:26:39;;;;;;;9.63;4.47;;;;;;;;;;4830122;29;20042;-80
2023/03/20 10:29:30;;;;;;;10.38;6.28;;;;;;;;;;4829895;29;20034;-79
2023/03/20 10:32:28;;;;;;;11.10;5.53;;;;;;;;;;4829705;29;20049;-80
2023/03/20 10:35:14;;;;;;;9.95;5.13;;;;;;;;;;4829424;29;20042;-80
2023/03/20 10:38:05;;;;;;;13.75;5.75;;;;;;;;;;4829558;29;20042;-79
2023/03/20 10:40:52;;;;;;;11.95;6.28;;;;;;;;;;4812625;29;20047;-80
2023/03/20 10:43:41;;;;;;;12.40;6.68;;;;;;;;;;4812572;29;20054;-80
2023/03/20 10:46:30;;;;;;;14.68;4.18;;;;;;;;;;4812351;29;20051;-78
2023/03/20 10:49:40;;;;;;;8.85;5.47;;;;;;;;;;4829755;29;20038;-81
2023/03/20 10:52:29;;;;;;;9.00;6.13;;;;;;;;;;4812076;29;20047;-78
2023/03/20 10:55:20;;;;;;;12.60;6.38;;;;;;;;;;4812870;29;20050;-80
2023/03/20 10:58:38;;;;;;;10.73;6.57;;;;;;;;;;4812467;29;20065;-79
2023/03/20 11:01:23;;;;;;;11.85;5.35;;;;;;;;;;4835469;29;20105;-81
2023/03/20 11:04:09;;;;;;;15.48;5.85;;;;;;;;;;4812538;29;20062;-79
2023/03/20 11:06:54;;;;;;;11.43;6.47;;;;;;;;;;4812238;29;20047;-78
2023/03/20 11:09:38;;;;;;;12.38;5.90;;;;;;;;;;4812504;29;20070;-79
2023/03/20 11:12:23;;;;;;;8.05;5.20;;;;;;;;;;4811284;29;20500;-81
2023/03/20 11:15:17;;;;;;;9.07;5.30;;;;;;;;;;4829173;29;21684;-81
2023/03/20 11:18:04;;;;;;;11.45;5.78;;;;;;;;;;4811179;29;20409;-81
2023/03/20 11:20:54;;;;;;;9.85;5.65;;;;;;;;;;4798507;29;20492;-79
2023/03/20 11:23:40;;;;;;;9.35;5.50;;;;;;;;;;4827587;29;20049;-80
2023/03/20 11:26:37;;;;;;;8.88;5.47;;;;;;;;;;4810970;29;20047;-80
2023/03/20 11:29:29;;;;;;;9.60;5.78;;;;;;;;;;4828739;29;20436;-80
2023/03/20 11:32:29;;;;;;;9.75;5.25;;;;;;;;;;4804553;29;20046;-81
2023/03/20 11:35:32;;;;;;;9.70;5.53;;;;;;;;;;4817190;29;20050;-80
2023/03/20 11:38:20;;;;;;;13.20;7.28;;;;;;;;;;4816569;29;20046;-81
2023/03/20 11:41:16;;;;;;;12.65;5.68;;;;;;;;;;4798036;29;20050;-81
2023/03/20 11:44:02;;;;;;;9.25;5.10;;;;;;;;;;4812029;29;20062;-81
2023/03/20 11:47:02;;;;;;;8.27;4.78;;;;;;;;;;4828971;29;20050;-82
2023/03/20 11:50:00;;;;;;;11.50;5.63;;;;;;;;;;4815705;29;20053;-80
2023/03/20 11:52:45;;;;;;;11.43;5.30;;;;;;;;;;4822210;29;20042;-79
2023/03/20 11:55:34;;;;;;;8.43;5.90;;;;;;;;;;4828849;29;20125;-80
2023/03/20 11:58:19;;;;;;;12.52;5.22;;;;;;;;;;4828771;29;20050;-80
2023/03/20 12:01:08;;;;;;;11.02;5.07;;;;;;;;;;4814364;29;20050;-82
2023/03/20 12:03:54;;;;;;;11.07;5.63;;;;;;;;;;4815368;29;20054;-79
2023/03/20 12:06:47;;;;;;;10.82;6.00;;;;;;;;;;4832008;29;20087;-79
2023/03/20 12:09:39;;;;;;;9.13;5.35;;;;;;;;;;4831550;29;20042;-79
2023/03/20 12:12:44;;;;;;;7.43;5.25;;;;;;;;;;4815003;29;20038;-81
2023/03/20 12:15:32;;;;;;;17.35;6.20;;;;;;;;;;4814389;29;20046;-81
2023/03/20 12:18:24;;;;;;;13.80;5.50;;;;;;;;;;4807219;29;20059;-80
2023/03/20 12:21:45;;;;;;;10.40;5.80;;;;;;;;;;4815586;29;20043;-79
2023/03/20 12:24:45;;;;;;;11.98;5.85;;;;;;;;;;4814549;29;20489;-79
2023/03/20 12:27:36;;;;;;;9.63;5.90;;;;;;;;;;4813508;29;20059;-79
2023/03/20 12:30:31;;;;;;;9.43;6.03;;;;;;;;;;4831639;29;20067;-80
2023/03/20 12:33:37;;;;;;;12.55;5.75;;;;;;;;;;4814852;29;20047;-81
2023/03/20 12:36:32;;;;;;;12.30;6.67;;;;;;;;;;4814032;29;20051;-79
2023/03/20 12:39:23;;;;;;;10.48;6.00;;;;;;;;;;4831657;29;20273;-79
2023/03/20 12:42:44;;;;;;;11.40;5.57;;;;;;;;;;4814687;29;20035;-80
2023/03/20 12:45:40;;;;;;;10.60;5.65;;;;;;;;;;4831984;29;20050;-81
2023/03/20 12:48:47;;;;;;;10.13;5.97;;;;;;;;;;4831424;29;20050;-79
2023/03/20 12:51:45;;;;;;;13.05;6.03;;;;;;;;;;4806764;29;20063;-79
2023/03/20 12:54:56;;;;;;;10.63;6.00;;;;;;;;;;4813979;29;20436;-78
2023/03/20 12:58:11;;;;;;;12.32;5.70;;;;;;;;;;4807087;29;20404;-78
2023/03/20 13:00:56;;;;;;;;;;;;;;;;;;4807254;29;20055;-80
2023/03/20 13:03:43;;;;;;;;;;;;;;;;;;4814288;29;20362;-78
2023/03/20 13:06:52;;;;;;;9.02;5.63;;;;;;;;;;4814580;29;19921;-80
2023/03/20 13:09:49;;;;;;;12.07;6.70;;;;;;;;;;4830704;29;20487;-77
2023/03/20 13:13:07;;;;;;;10.30;5.90;;;;;;;;;;4812352;29;20059;-78
2023/03/20 13:16:27;;;;;;;11.50;6.63;;;;;;;;;;4830967;29;20041;-79
2023/03/20 13:19:51;;;;;;;10.85;6.93;;;;;;;;;;4806435;29;20058;-78
2023/03/20 13:22:54;;;;;;;14.55;6.32;;;;;;;;;;4801347;29;20054;-79
2023/03/20 13:25:45;;;;;;;12.07;7.05;;;;;;;;;;4814843;29;20046;-79
2023/03/20 13:28:49;;;;;;;13.18;7.13;;;;;;;;;;4817512;29;20054;-79
2023/03/20 13:31:40;;;;;;;11.45;6.40;;;;;;;;;;4823360;29;20050;-77
2023/03/20 13:35:10;;;;;;;18.17;8.48;;;;;;;;;;4800737;29;20400;-78
2023/03/20 13:38:11;;;;;;;15.32;7.90;;;;;;;;;;4798316;29;20054;-79
2023/03/20 13:41:08;;;;;;;16.00;7.60;;;;;;;;;;4815471;29;20043;-80
2023/03/20 13:44:03;;;;;;;11.52;7.07;;;;;;;;;;4830603;29;20053;-80
2023/03/20 13:46:52;;;;;;;15.13;7.10;;;;;;;;;;4803124;29;20054;-81
2023/03/20 13:49:45;;;;;;;12.80;6.85;;;;;;;;;;4820141;29;20286;-79
2023/03/20 13:53:13;;;;;;;10.57;6.88;;;;;;;;;;4813901;29;20495;-81
2023/03/20 13:56:30;;;;;;;12.55;6.55;;;;;;;;;;4812870;29;20493;-79
2023/03/20 13:59:35;;;;;;;12.52;7.55;;;;;;;;;;4824597;29;20046;-82
2023/03/20 14:02:24;;;;;;;17.48;7.15;;;;;;;;;;4806661;29;20046;-81
2023/03/20 14:05:21;;;;;;;14.40;8.10;;;;;;;;;;4799732;29;20388;-82
2023/03/20 14:08:29;;;;;;;14.27;7.78;;;;;;;;;;4813516;29;20050;-81
2023/03/20 14:11:21;;;;;;;10.73;7.15;;;;;;;;;;4813918;29;20046;-82
2023/03/20 14:14:27;;;;;;;12.63;7.25;;;;;;;;;;4808604;29;20054;-80
2023/03/20 14:17:23;;;;;;;13.02;7.43;;;;;;;;;;4813722;29;20050;-80
2023/03/20 14:20:38;;;;;;;14.32;7.68;;;;;;;;;;4816721;29;20046;-80
2023/03/20 14:23:48;;;;;;;16.75;8.02;;;;;;;;;;4813128;29;20395;-80
2023/03/20 14:26:37;;;;;;;15.45;8.25;;;;;;;;;;4811010;29;20495;-81
2023/03/20 14:29:27;;;;;;;13.93;8.68;;;;;;;;;;4811417;29;20050;-80
2023/03/20 14:32:12;;;;;;;21.15;9.35;;;;;;;;;;4823137;29;20492;-80
2023/03/20 14:35:18;;;;;;;15.07;8.38;;;;;;;;;;4803787;29;20055;-80
2023/03/20 14:38:09;;;;;;;19.25;8.50;;;;;;;;;;4811435;29;20397;-80
2023/03/20 14:40:58;;;;;;;14.90;7.40;;;;;;;;;;4811767;29;20051;-80
2023/03/20 14:43:50;;;;;;;18.33;8.73;;;;;;;;;;4812650;29;20640;-81
2023/03/20 14:47:16;;;;;;;16.23;8.23;;;;;;;;;;4802101;29;20051;-81
2023/03/20 14:50:13;;;;;;;22.92;9.20;;;;;;;;;;4810661;29;20050;-81
2023/03/20 14:52:59;;;;;;;79.60;42.38;;;;;;;;;;4811420;29;20043;-81
2023/03/20 14:55:56;;;;;;;14.48;9.48;;;;;;;;;;4811356;29;20050;-81
2023/03/20 14:58:57;;;;;;;18.40;10.68;;;;;;;;;;4811641;29;20055;-81
2023/03/20 15:02:02;;;;;;;25.17;12.07;;;;;;;;;;4810845;29;20363;-81
2023/03/20 15:04:48;;;;;;;21.10;12.93;;;;;;;;;;4809601;29;20050;-80
2023/03/20 15:07:37;;;;;;;15.65;9.35;;;;;;;;;;4811810;29;20050;-81
2023/03/20 15:10:25;;;;;;;20.67;10.25;;;;;;;;;;4796743;29;20066;-82
2023/03/20 15:13:12;;;;;;;30.70;19.00;;;;;;;;;;4811886;29;20054;-81
2023/03/20 15:16:05;;;;;;;15.25;8.65;;;;;;;;;;4812021;29;20484;-80
2023/03/20 15:18:51;;;;;;;36.35;20.92;;;;;;;;;;4810435;29;20508;-81
2023/03/20 15:21:40;;;;;;;35.83;20.17;;;;;;;;;;4811349;29;20042;-81
2023/03/20 15:24:28;;;;;;;27.88;14.45;;;;;;;;;;4802442;29;20046;-80
2023/03/20 15:27:14;;;;;;;39.85;16.30;;;;;;;;;;4810092;29;20046;-82
2023/03/20 15:30:01;;;;;;;25.00;13.68;;;;;;;;;;4815048;29;20043;-81
2023/03/20 15:32:51;;;;;;;24.38;9.13;;;;;;;;;;4810626;29;20484;-80
2023/03/20 15:35:37;;;;;;;17.92;8.77;;;;;;;;;;4813692;29;20046;-81
2023/03/20 15:38:28;;;;;;;18.52;8.52;;;;;;;;;;4800137;29;20051;-80
2023/03/20 15:41:30;;;;;;;17.45;9.10;;;;;;;;;;4813760;29;20054;-80
2023/03/20 15:44:44;;;;;;;22.38;12.52;;;;;;;;;;4807998;29;20046;-81
2023/03/20 15:47:31;;;;;;;21.00;11.32;;;;;;;;;;4816050;29;20063;-80
2023/03/20 15:50:16;;;;;;;21.38;10.15;;;;;;;;;;4814562;29;20046;-81
2023/03/20 15:53:03;;;;;;;22.70;10.43;;;;;;;;;;4831242;29;20078;-82
2023/03/20 15:55:51;;;;;;;16.38;9.32;;;;;;;;;;4831328;29;20428;-80
2023/03/20 15:58:37;;;;;;;13.55;9.18;;;;;;;;;;4814661;29;20050;-80
2023/03/20 16:01:25;;;;;;;16.10;9.80;;;;;;;;;;4829588;29;20042;-81
2023/03/20 16:04:16;;;;;;;18.02;9.82;;;;;;;;;;4830496;29;21595;-81
2023/03/20 16:07:02;;;;;;;20.38;8.90;;;;;;;;;;4830613;29;20054;-80
2023/03/20 16:09:48;;;;;;;17.80;9.90;;;;;;;;;;4813977;29;20050;-81
2023/03/20 16:12:33;;;;;;;22.25;12.60;;;;;;;;;;4814383;29;20047;-80
2023/03/20 16:15:20;;;;;;;21.75;12.10;;;;;;;;;;4830497;29;20406;-81
2023/03/20 16:18:06;;;;;;;18.58;11.98;;;;;;;;;;4830096;29;20491;-81
2023/03/20 16:20:57;;;;;;;22.23;12.95;;;;;;;;;;4813246;29;20499;-82
2023/03/20 16:23:50;;;;;;;22.67;12.88;;;;;;;;;;4825438;29;20042;-82
2023/03/20 16:26:39;;;;;;;46.55;31.33;;;;;;;;;;4814221;29;20042;-80
2023/03/20 16:29:26;;;;;;;35.85;23.17;;;;;;;;;;4806314;29;20046;-82
2023/03/20 16:32:37;;;;;;;23.10;14.60;;;;;;;;;;4814079;29;20043;-80
2023/03/20 16:35:33;;;;;;;26.80;15.68;;;;;;;;;;4830434;29;20490;-79
2023/03/20 16:38:29;;;;;;;17.88;10.25;;;;;;;;;;4813536;29;20067;-80
2023/03/20 16:41:33;;;;;;;18.35;9.60;;;;;;;;;;4813635;29;20046;-79
2023/03/20 16:44:23;;;;;;;29.38;9.88;;;;;;;;;;4831560;29;20042;-84
2023/03/20 16:47:09;;;;;;;24.45;9.80;;;;;;;;;;4814238;29;20051;-80
2023/03/20 16:49:54;;;;;;;20.45;10.32;;;;;;;;;;4807268;29;20050;-80
2023/03/20 16:52:44;;;;;;;19.63;11.13;;;;;;;;;;4814795;29;20492;-79
2023/03/20 16:55:33;;;;;;;22.27;12.52;;;;;;;;;;4831481;29;20054;-81